createdAt,value
2023-05-06T00:00:58.515Z,3.80
2023-05-06T00:03:26.310Z,3.40
2023-05-06T00:05:53.754Z,4.30
2023-05-06T00:08:21.677Z,4.65
2023-05-06T00:10:48.902Z,4.60
2023-05-06T00:13:16.735Z,4.35
2023-05-06T00:15:44.320Z,3.75
2023-05-06T00:18:11.904Z,4.55
2023-05-06T00:20:39.385Z,4.35
2023-05-06T00:23:06.941Z,3.63
2023-05-06T00:25:36.504Z,3.95
2023-05-06T00:28:04.183Z,3.90
2023-05-06T00:30:31.618Z,4.95
2023-05-06T00:32:59.181Z,4.05
2023-05-06T00:35:26.719Z,3.72
2023-05-06T00:38:06.569Z,3.90
2023-05-06T00:40:33.735Z,4.78
2023-05-06T00:43:01.260Z,4.18
2023-05-06T00:45:28.584Z,4.00
2023-05-06T00:47:57.474Z,4.35
2023-05-06T00:50:28.416Z,4.38
2023-05-06T00:52:58.200Z,3.83
2023-05-06T00:55:26.250Z,4.15
2023-05-06T00:57:54.658Z,5.10
2023-05-06T01:00:22.297Z,4.32
2023-05-06T01:02:50.009Z,4.43
2023-05-06T01:05:20.891Z,3.95
2023-05-06T01:08:16.038Z,3.63
2023-05-06T01:10:53.487Z,4.22
2023-05-06T01:13:35.533Z,4.18
2023-05-06T01:16:05.087Z,3.53
2023-05-06T01:18:34.764Z,4.32
2023-05-06T01:21:04.804Z,4.28
2023-05-06T01:23:56.660Z,3.75
2023-05-06T01:26:24.801Z,4.07
2023-05-06T01:28:52.560Z,3.95
2023-05-06T01:31:52.499Z,3.92
2023-05-06T01:34:36.166Z,3.65
2023-05-06T01:37:06.664Z,3.80
2023-05-06T01:39:34.694Z,4.13
2023-05-06T01:42:03.189Z,4.65
2023-05-06T01:44:34.392Z,4.10
2023-05-06T01:47:02.542Z,3.72
2023-05-06T01:49:30.619Z,3.38
2023-05-06T01:51:58.031Z,3.72
2023-05-06T01:54:25.937Z,4.07
2023-05-06T01:56:54.222Z,3.80
2023-05-06T01:59:21.731Z,3.80
2023-05-06T02:01:49.009Z,3.75
2023-05-06T02:04:17.305Z,3.38
2023-05-06T02:06:45.074Z,4.07
2023-05-06T02:09:15.983Z,3.92
2023-05-06T02:11:48.251Z,3.63
2023-05-06T02:14:15.805Z,4.05
2023-05-06T02:16:43.451Z,4.00
2023-05-06T02:19:11.124Z,3.72
2023-05-06T02:21:38.394Z,4.65
2023-05-06T02:24:06.964Z,3.95
2023-05-06T02:26:34.435Z,3.33
2023-05-06T02:29:02.005Z,4.00
2023-05-06T02:31:29.440Z,3.78
2023-05-06T02:33:56.921Z,3.20
2023-05-06T02:36:24.195Z,3.47
2023-05-06T02:38:51.970Z,2.83
2023-05-06T02:41:19.268Z,3.30
2023-05-06T02:43:47.131Z,4.00
2023-05-06T02:46:14.531Z,3.53
2023-05-06T02:48:42.273Z,3.97
2023-05-06T02:51:09.503Z,3.63
2023-05-06T02:53:36.924Z,4.18
2023-05-06T02:56:04.483Z,3.33
2023-05-06T02:58:32.134Z,3.38
2023-05-06T03:00:59.508Z,3.88
2023-05-06T03:03:27.084Z,3.45
2023-05-06T03:05:54.276Z,3.28
2023-05-06T03:08:22.260Z,3.30
2023-05-06T03:10:50.816Z,3.83
2023-05-06T03:13:20.650Z,3.67
2023-05-06T03:15:54.262Z,4.68
2023-05-06T03:18:22.840Z,3.97
2023-05-06T03:20:51.004Z,3.75
2023-05-06T03:23:19.171Z,3.92
2023-05-06T03:25:46.767Z,3.03
2023-05-06T03:28:15.801Z,3.28
2023-05-06T03:30:45.598Z,3.55
2023-05-06T03:33:13.481Z,3.17
2023-05-06T03:35:42.417Z,3.25
2023-05-06T03:38:10.118Z,3.83
2023-05-06T03:40:44.472Z,3.95
2023-05-06T03:43:12.887Z,3.40
2023-05-06T03:45:40.556Z,3.22
2023-05-06T03:48:08.831Z,2.85
2023-05-06T03:50:39.870Z,3.42
2023-05-06T03:53:07.947Z,3.20
2023-05-06T03:55:37.594Z,3.30
2023-05-06T03:58:06.451Z,3.03
2023-05-06T04:00:33.699Z,3.30
2023-05-06T04:03:01.219Z,3.15
2023-05-06T04:05:39.333Z,3.10
2023-05-06T04:08:07.623Z,3.05
2023-05-06T04:10:41.484Z,2.80
2023-05-06T04:13:18.072Z,2.97
2023-05-06T04:15:46.061Z,2.85
2023-05-06T04:18:20.066Z,2.88
2023-05-06T04:20:56.648Z,3.00
2023-05-06T04:23:25.288Z,2.67
2023-05-06T04:25:53.074Z,2.20
2023-05-06T04:28:23.583Z,3.20
2023-05-06T04:30:52.888Z,3.10
2023-05-06T04:33:25.079Z,3.25
2023-05-06T04:35:54.068Z,3.20
2023-05-06T04:38:23.706Z,2.90
2023-05-06T04:40:51.151Z,2.72
2023-05-06T04:43:19.912Z,3.10
2023-05-06T04:45:49.818Z,2.85
2023-05-06T04:48:22.914Z,3.92
2023-05-06T04:50:51.413Z,2.78
2023-05-06T04:53:18.977Z,2.47
2023-05-06T04:55:47.154Z,2.40
2023-05-06T04:58:16.240Z,2.78
2023-05-06T05:00:44.509Z,3.10
2023-05-06T05:03:12.187Z,2.38
2023-05-06T05:05:39.524Z,2.60
2023-05-06T05:08:14.652Z,2.67
2023-05-06T05:10:43.547Z,3.08
2023-05-06T05:13:14.467Z,3.30
2023-05-06T05:15:42.422Z,3.13
2023-05-06T05:18:10.936Z,2.85
2023-05-06T05:20:39.542Z,2.78
2023-05-06T05:23:10.389Z,2.40
2023-05-06T05:25:38.298Z,3.17
2023-05-06T05:28:06.440Z,2.95
2023-05-06T05:30:35.314Z,2.55
2023-05-06T05:33:03.331Z,3.00
2023-05-06T05:35:31.419Z,2.97
2023-05-06T05:37:59.483Z,3.15
2023-05-06T05:40:27.606Z,3.00
2023-05-06T05:42:55.449Z,3.03
2023-05-06T05:45:29.197Z,3.33
2023-05-06T05:47:57.417Z,4.35
2023-05-06T05:50:26.223Z,3.58
2023-05-06T05:52:54.707Z,2.40
2023-05-06T05:55:22.637Z,4.30
2023-05-06T05:57:51.530Z,2.90
2023-05-06T06:00:21.941Z,2.90
2023-05-06T06:02:56.813Z,3.28
2023-05-06T06:05:24.288Z,3.50
2023-05-06T06:07:52.260Z,3.22
2023-05-06T06:10:20.189Z,3.20
2023-05-06T06:12:48.039Z,3.45
2023-05-06T06:15:20.314Z,3.13
2023-05-06T06:17:48.026Z,2.92
2023-05-06T06:20:15.341Z,3.30
2023-05-06T06:22:43.097Z,2.88
2023-05-06T06:25:11.062Z,2.72
2023-05-06T06:27:38.739Z,2.85
2023-05-06T06:30:08.034Z,2.88
2023-05-06T06:32:35.820Z,3.22
2023-05-06T06:35:03.464Z,2.70
2023-05-06T06:37:31.057Z,2.45
2023-05-06T06:39:58.220Z,3.17
2023-05-06T06:42:26.952Z,2.50
2023-05-06T06:45:10.145Z,3.33
2023-05-06T06:47:38.117Z,3.45
2023-05-06T06:50:06.152Z,3.03
2023-05-06T06:52:34.426Z,3.17
2023-05-06T06:55:02.465Z,2.78
2023-05-06T06:57:30.136Z,3.90
2023-05-06T06:59:57.391Z,2.63
2023-05-06T07:02:24.998Z,2.47
2023-05-06T07:04:52.316Z,2.75
2023-05-06T07:07:19.757Z,3.13
2023-05-06T07:09:46.918Z,2.90
2023-05-06T07:12:14.421Z,2.85
2023-05-06T07:14:41.812Z,3.67
2023-05-06T07:17:09.538Z,3.63
2023-05-06T07:19:36.966Z,2.97
2023-05-06T07:22:04.637Z,3.70
2023-05-06T07:24:31.959Z,2.58
2023-05-06T07:27:01.213Z,2.95
2023-05-06T07:29:28.742Z,5.13
2023-05-06T07:31:56.455Z,3.13
2023-05-06T07:34:23.688Z,3.13
2023-05-06T07:36:51.336Z,3.17
2023-05-06T07:39:26.028Z,2.85
2023-05-06T07:41:54.570Z,2.83
2023-05-06T07:44:24.460Z,2.83
2023-05-06T07:46:52.949Z,2.88
2023-05-06T07:49:20.739Z,4.35
2023-05-06T07:51:48.590Z,3.40
2023-05-06T07:54:15.887Z,3.05
2023-05-06T07:56:44.140Z,2.92
2023-05-06T07:59:11.885Z,2.60
2023-05-06T08:01:39.405Z,2.65
2023-05-06T08:04:07.586Z,2.40
2023-05-06T08:06:36.241Z,2.63
2023-05-06T08:09:04.693Z,2.38
2023-05-06T08:11:32.766Z,3.05
2023-05-06T08:14:00.051Z,3.38
2023-05-06T08:16:27.630Z,3.03
2023-05-06T08:18:54.949Z,2.00
2023-05-06T08:21:22.473Z,2.80
2023-05-06T08:23:49.768Z,2.40
2023-05-06T08:26:20.021Z,2.80
2023-05-06T08:28:47.277Z,3.47
2023-05-06T08:31:17.375Z,2.92
2023-05-06T08:33:44.794Z,3.40
2023-05-06T08:36:12.341Z,2.67
2023-05-06T08:38:39.632Z,2.92
2023-05-06T08:41:13.642Z,2.60
2023-05-06T08:43:42.606Z,2.38
2023-05-06T08:46:10.479Z,2.47
2023-05-06T08:48:37.793Z,3.30
2023-05-06T08:51:05.919Z,2.33
2023-05-06T08:53:40.036Z,3.05
2023-05-06T08:56:11.623Z,2.95
2023-05-06T08:58:43.463Z,4.53
2023-05-06T09:01:11.202Z,3.60
2023-05-06T09:03:38.539Z,2.85
2023-05-06T09:06:06.377Z,2.72
2023-05-06T09:08:33.619Z,2.92
2023-05-06T09:11:01.125Z,2.10
2023-05-06T09:13:28.335Z,2.78
2023-05-06T09:15:55.934Z,3.05
2023-05-06T09:18:23.646Z,3.13
2023-05-06T09:20:51.271Z,3.15
2023-05-06T09:23:19.208Z,3.40
2023-05-06T09:25:47.703Z,2.88
2023-05-06T09:28:15.358Z,3.58
2023-05-06T09:30:45.559Z,2.72
2023-05-06T09:33:12.903Z,3.42
2023-05-06T09:35:42.378Z,2.92
2023-05-06T09:38:10.348Z,3.05
2023-05-06T09:40:39.444Z,2.22
2023-05-06T09:43:07.728Z,2.42
2023-05-06T09:45:36.484Z,3.28
2023-05-06T09:48:04.205Z,2.38
2023-05-06T09:50:32.872Z,3.17
2023-05-06T09:53:00.541Z,3.00
2023-05-06T09:55:28.774Z,2.72
2023-05-06T09:57:58.156Z,2.72
2023-05-06T10:00:29.033Z,2.88
2023-05-06T10:02:58.335Z,2.58
2023-05-06T10:05:27.512Z,4.72
2023-05-06T10:07:57.245Z,4.03
2023-05-06T10:10:27.239Z,3.35
2023-05-06T10:12:55.375Z,3.17
2023-05-06T10:15:25.408Z,3.08
2023-05-06T10:17:54.297Z,3.08
2023-05-06T10:20:24.330Z,3.08
2023-05-06T10:23:03.494Z,2.67
2023-05-06T10:25:40.101Z,3.45
2023-05-06T10:28:13.513Z,3.05
2023-05-06T10:30:49.881Z,3.08
2023-05-06T10:33:17.899Z,3.25
2023-05-06T10:35:53.228Z,3.15
2023-05-06T10:38:20.384Z,3.22
2023-05-06T10:40:49.224Z,4.10
2023-05-06T10:43:30.617Z,3.00
2023-05-06T10:46:17.859Z,3.80
2023-05-06T10:49:06.763Z,3.00
2023-05-06T10:51:43.902Z,3.58
2023-05-06T10:54:11.986Z,3.63
2023-05-06T10:57:03.005Z,3.65
2023-05-06T10:59:31.517Z,3.55
2023-05-06T11:02:05.027Z,2.85
2023-05-06T11:04:32.691Z,3.25
2023-05-06T11:07:11.331Z,2.95
2023-05-06T11:10:06.170Z,2.30
2023-05-06T11:12:49.707Z,2.80
2023-05-06T11:15:35.998Z,2.90
2023-05-06T11:18:34.682Z,3.30
2023-05-06T11:21:03.841Z,2.67
2023-05-06T11:23:43.371Z,3.83
2023-05-06T11:26:11.824Z,2.83
2023-05-06T11:28:40.446Z,2.78
2023-05-06T11:31:10.140Z,6.60
2023-05-06T11:33:45.107Z,5.05
2023-05-06T11:36:20.042Z,4.72
2023-05-06T11:38:52.801Z,3.47
2023-05-06T11:41:22.896Z,3.63
2023-05-06T11:43:52.292Z,3.58
2023-05-06T11:46:22.049Z,3.35
2023-05-06T11:48:50.719Z,3.70
2023-05-06T11:51:24.646Z,2.95
2023-05-06T11:54:12.532Z,3.50
2023-05-06T11:56:47.655Z,3.67
2023-05-06T11:59:15.564Z,3.00
2023-05-06T12:01:44.032Z,3.72
2023-05-06T12:04:12.696Z,3.45
2023-05-06T12:06:40.268Z,3.65
2023-05-06T12:09:11.166Z,3.42
2023-05-06T12:11:42.072Z,4.40
2023-05-06T12:14:14.510Z,3.58
2023-05-06T12:16:42.461Z,4.07
2023-05-06T12:19:10.916Z,3.47
2023-05-06T12:21:39.057Z,4.15
2023-05-06T12:24:07.138Z,4.03
2023-05-06T12:26:48.422Z,4.80
2023-05-06T12:29:20.092Z,5.37
2023-05-06T12:31:48.375Z,4.25
2023-05-06T12:34:18.285Z,4.30
2023-05-06T12:36:47.152Z,5.10
2023-05-06T12:39:14.763Z,6.22
2023-05-06T12:41:45.153Z,4.90
2023-05-06T12:44:38.178Z,4.68
2023-05-06T12:50:01.089Z,4.88
2023-05-06T12:52:29.968Z,5.32
2023-05-06T12:55:00.753Z,5.75
2023-05-06T12:57:28.070Z,5.47
2023-05-06T12:59:56.390Z,5.43
2023-05-06T13:02:23.975Z,5.22
2023-05-06T13:04:51.720Z,6.68
2023-05-06T13:07:19.302Z,6.25
2023-05-06T13:09:49.435Z,6.47
2023-05-06T13:12:16.921Z,6.13
2023-05-06T13:14:44.670Z,6.28
2023-05-06T13:17:12.003Z,5.95
2023-05-06T13:19:39.859Z,5.20
2023-05-06T13:22:07.535Z,6.47
2023-05-06T13:24:35.231Z,6.00
2023-05-06T13:27:02.708Z,6.18
2023-05-06T13:29:30.367Z,6.32
2023-05-06T13:31:57.945Z,6.85
2023-05-06T13:34:26.090Z,6.80
2023-05-06T13:36:54.745Z,6.65
2023-05-06T13:39:23.072Z,6.88
2023-05-06T13:41:52.226Z,7.63
2023-05-06T13:44:20.860Z,7.38
2023-05-06T13:46:48.642Z,6.47
2023-05-06T13:49:16.917Z,7.97
2023-05-06T13:51:44.262Z,6.03
2023-05-06T13:54:12.137Z,7.10
2023-05-06T13:56:39.406Z,6.60
2023-05-06T13:59:08.306Z,7.55
2023-05-06T14:01:40.447Z,7.22
2023-05-06T14:04:09.232Z,6.68
2023-05-06T14:06:36.534Z,6.47
2023-05-06T14:09:04.758Z,6.47
2023-05-06T14:11:32.067Z,6.03
2023-05-06T14:14:00.386Z,6.15
2023-05-06T14:16:27.667Z,6.65
2023-05-06T14:18:55.297Z,5.97
2023-05-06T14:21:22.879Z,5.90
2023-05-06T14:23:50.313Z,6.10
2023-05-06T14:26:17.678Z,6.20
2023-05-06T14:28:45.851Z,6.72
2023-05-06T14:31:14.311Z,7.10
2023-05-06T14:33:42.886Z,7.43
2023-05-06T14:36:10.117Z,7.05
2023-05-06T14:38:37.730Z,6.78
2023-05-06T14:41:05.009Z,6.15
2023-05-06T14:43:32.858Z,7.43
2023-05-06T14:46:00.459Z,8.00
2023-05-06T14:48:28.308Z,6.95
2023-05-06T14:50:55.548Z,5.97
2023-05-06T14:53:23.080Z,6.57
2023-05-06T14:55:50.309Z,6.07
2023-05-06T14:58:18.124Z,6.65
2023-05-06T15:00:45.379Z,7.00
2023-05-06T15:03:14.372Z,6.55
2023-05-06T15:05:41.664Z,7.68
2023-05-06T15:08:10.351Z,6.50
2023-05-06T15:10:37.621Z,7.10
2023-05-06T15:13:05.221Z,6.10
2023-05-06T15:15:32.627Z,6.70
2023-05-06T15:18:00.240Z,9.35
2023-05-06T15:20:27.730Z,7.13
2023-05-06T15:23:00.339Z,6.70
2023-05-06T15:25:35.729Z,8.07
2023-05-06T15:28:05.099Z,7.47
2023-05-06T15:30:32.486Z,7.13
2023-05-06T15:33:01.889Z,8.15
2023-05-06T15:35:30.489Z,7.75
2023-05-06T15:37:59.162Z,8.30
2023-05-06T15:40:26.967Z,8.00
2023-05-06T15:42:54.578Z,8.52
2023-05-06T15:45:22.365Z,7.90
2023-05-06T15:47:49.912Z,9.10
2023-05-06T15:50:31.634Z,8.85
2023-05-06T15:53:02.233Z,7.68
2023-05-06T15:55:30.246Z,8.18
2023-05-06T15:58:00.573Z,9.45
2023-05-06T16:00:28.176Z,8.82
2023-05-06T16:02:55.857Z,10.15
2023-05-06T16:05:23.217Z,9.40
2023-05-06T16:07:50.918Z,9.35
2023-05-06T16:10:18.391Z,9.60
2023-05-06T16:12:46.418Z,8.52
2023-05-06T16:15:13.785Z,9.18
2023-05-06T16:17:41.370Z,8.77
2023-05-06T16:20:12.734Z,9.68
2023-05-06T16:22:40.800Z,9.57
2023-05-06T16:25:08.420Z,9.63
2023-05-06T16:27:35.985Z,9.27
2023-05-06T16:30:03.607Z,10.77
2023-05-06T16:32:32.310Z,9.82
2023-05-06T16:34:59.563Z,9.77
2023-05-06T16:37:28.475Z,10.18
2023-05-06T16:39:55.986Z,11.40
2023-05-06T16:42:23.429Z,10.77
2023-05-06T16:44:51.691Z,11.95
2023-05-06T16:47:24.501Z,9.85
2023-05-06T16:49:52.466Z,10.70
2023-05-06T16:52:20.130Z,10.20
2023-05-06T16:54:47.456Z,10.07
2023-05-06T16:57:15.178Z,9.85
2023-05-06T16:59:42.412Z,9.15
2023-05-06T17:02:10.280Z,9.32
2023-05-06T17:04:37.727Z,9.48
2023-05-06T17:07:05.678Z,9.43
2023-05-06T17:09:32.999Z,10.15
2023-05-06T17:12:00.755Z,10.68
2023-05-06T17:14:28.145Z,10.40
2023-05-06T17:16:56.342Z,10.40
2023-05-06T17:19:23.664Z,9.73
2023-05-06T17:21:51.364Z,10.13
2023-05-06T17:24:18.654Z,9.20
2023-05-06T17:26:46.757Z,8.63
2023-05-06T17:29:14.156Z,9.45
2023-05-06T17:31:41.616Z,9.07
2023-05-06T17:34:08.856Z,8.75
2023-05-06T17:36:37.301Z,10.05
2023-05-06T17:39:05.567Z,10.00
2023-05-06T17:41:33.581Z,9.38
2023-05-06T17:44:01.078Z,9.43
2023-05-06T17:46:28.734Z,9.27
2023-05-06T17:48:56.103Z,9.15
2023-05-06T17:51:23.623Z,9.50
2023-05-06T17:53:51.794Z,9.40
2023-05-06T17:56:20.424Z,17.40
2023-05-06T17:58:47.988Z,13.07
2023-05-06T18:01:15.693Z,9.25
2023-05-06T18:03:43.999Z,10.40
2023-05-06T18:06:12.396Z,8.45
2023-05-06T18:08:39.594Z,7.63
2023-05-06T18:11:07.275Z,9.25
2023-05-06T18:13:36.623Z,8.90
2023-05-06T18:16:04.731Z,9.43
2023-05-06T18:18:32.066Z,9.82
2023-05-06T18:20:59.655Z,9.38
2023-05-06T18:23:26.904Z,9.88
2023-05-06T18:25:54.535Z,10.75
2023-05-06T18:28:21.813Z,10.52
2023-05-06T18:30:49.331Z,11.40
2023-05-06T18:33:16.820Z,8.23
2023-05-06T18:35:44.343Z,10.52
2023-05-06T18:38:12.365Z,12.30
2023-05-06T18:40:41.091Z,10.35
2023-05-06T18:43:08.331Z,10.35
2023-05-06T18:45:36.063Z,12.20
2023-05-06T18:48:03.858Z,9.65
2023-05-06T18:50:31.673Z,8.15
2023-05-06T18:52:58.816Z,9.02
2023-05-06T18:55:26.745Z,9.73
2023-05-06T18:57:54.336Z,9.35
2023-05-06T19:00:22.574Z,8.27
2023-05-06T19:02:49.866Z,8.27
2023-05-06T19:05:17.849Z,9.82
2023-05-06T19:07:45.118Z,9.48
2023-05-06T19:10:14.030Z,9.07
2023-05-06T19:12:41.720Z,7.28
2023-05-06T19:15:12.241Z,9.35
2023-05-06T19:17:39.822Z,10.77
2023-05-06T19:20:08.217Z,9.80
2023-05-06T19:22:35.377Z,8.98
2023-05-06T19:25:02.948Z,10.13
2023-05-06T19:27:30.102Z,10.00
2023-05-06T19:29:57.650Z,9.52
2023-05-06T19:32:25.150Z,9.77
2023-05-06T19:34:52.753Z,8.98
2023-05-06T19:37:19.990Z,9.25
2023-05-06T19:39:49.575Z,8.45
2023-05-06T19:42:17.791Z,8.90
2023-05-06T19:44:47.920Z,8.80
2023-05-06T19:47:15.384Z,8.55
2023-05-06T19:49:42.951Z,7.72
2023-05-06T19:52:10.371Z,8.48
2023-05-06T19:54:37.918Z,8.88
2023-05-06T19:57:05.081Z,9.25
2023-05-06T19:59:32.739Z,8.38
2023-05-06T20:02:01.778Z,9.43
2023-05-06T20:04:29.281Z,8.43
2023-05-06T20:06:57.893Z,7.38
2023-05-06T20:09:25.477Z,8.00
2023-05-06T20:11:52.803Z,7.13
2023-05-06T20:14:20.295Z,6.30
2023-05-06T20:16:47.766Z,6.68
2023-05-06T20:19:19.323Z,6.10
2023-05-06T20:21:46.520Z,6.05
2023-05-06T20:24:14.379Z,7.38
2023-05-06T20:26:41.544Z,6.85
2023-05-06T20:29:09.004Z,7.03
2023-05-06T20:31:36.362Z,6.15
2023-05-06T20:34:03.943Z,6.00
2023-05-06T20:36:31.672Z,5.00
2023-05-06T20:39:00.684Z,5.40
2023-05-06T20:41:28.309Z,4.88
2023-05-06T20:43:57.235Z,5.45
2023-05-06T20:46:24.770Z,5.10
2023-05-06T20:48:52.459Z,4.65
2023-05-06T20:51:19.853Z,4.80
2023-05-06T20:53:47.507Z,4.80
2023-05-06T20:56:23.050Z,4.43
2023-05-06T20:58:54.905Z,4.45
2023-05-06T21:01:23.927Z,4.60
2023-05-06T21:03:51.765Z,4.85
2023-05-06T21:06:20.607Z,4.47
2023-05-06T21:08:48.173Z,4.22
2023-05-06T21:11:15.508Z,4.40
2023-05-06T21:13:43.106Z,4.18
2023-05-06T21:16:10.490Z,4.90
2023-05-06T21:18:38.136Z,3.90
2023-05-06T21:21:05.348Z,4.25
2023-05-06T21:23:33.017Z,3.55
2023-05-06T21:26:00.522Z,4.80
2023-05-06T21:28:28.704Z,3.67
2023-05-06T21:30:56.163Z,4.15
2023-05-06T21:33:23.744Z,4.00
2023-05-06T21:35:50.924Z,3.92
2023-05-06T21:38:18.597Z,3.80
2023-05-06T21:40:46.144Z,4.03
2023-05-06T21:43:15.981Z,3.53
2023-05-06T21:45:43.515Z,4.25
2023-05-06T21:48:11.899Z,4.25
2023-05-06T21:50:39.336Z,4.25
2023-05-06T21:53:06.851Z,3.65
2023-05-06T21:55:34.184Z,3.90
2023-05-06T21:58:01.641Z,3.83
2023-05-06T22:00:28.872Z,3.97
2023-05-06T22:02:56.715Z,4.13
2023-05-06T22:05:24.092Z,4.10
2023-05-06T22:07:51.693Z,3.60
2023-05-06T22:10:19.150Z,3.30
2023-05-06T22:12:46.872Z,3.40
2023-05-06T22:15:14.836Z,4.15
2023-05-06T22:17:42.541Z,3.50
2023-05-06T22:20:13.528Z,3.95
2023-05-06T22:22:41.066Z,3.58
2023-05-06T22:25:09.318Z,4.47
2023-05-06T22:27:37.219Z,3.63
2023-05-06T22:30:04.724Z,3.97
2023-05-06T22:32:33.256Z,4.28
2023-05-06T22:35:00.520Z,4.60
2023-05-06T22:37:28.041Z,4.03
2023-05-06T22:39:58.151Z,3.97
2023-05-06T22:42:25.692Z,3.97
2023-05-06T22:44:52.912Z,4.45
2023-05-06T22:47:20.778Z,3.65
2023-05-06T22:49:48.284Z,4.35
2023-05-06T22:52:16.819Z,4.40
2023-05-06T22:54:44.175Z,4.25
2023-05-06T22:57:11.882Z,4.22
2023-05-06T22:59:39.251Z,3.65
2023-05-06T23:02:06.698Z,4.30
2023-05-06T23:04:34.133Z,4.20
2023-05-06T23:07:01.406Z,4.20
2023-05-06T23:09:28.862Z,3.78
2023-05-06T23:11:56.097Z,4.53
2023-05-06T23:14:24.026Z,4.38
2023-05-06T23:16:51.352Z,4.25
2023-05-06T23:19:21.442Z,5.30
2023-05-06T23:21:48.737Z,4.55
2023-05-06T23:24:16.412Z,4.45
2023-05-06T23:26:43.909Z,4.47
2023-05-06T23:29:11.562Z,4.45
2023-05-06T23:31:38.749Z,4.18
2023-05-06T23:34:06.386Z,3.95
2023-05-06T23:36:34.211Z,4.07
2023-05-06T23:39:01.653Z,4.65
2023-05-06T23:41:28.829Z,4.43
2023-05-06T23:43:56.299Z,3.83
2023-05-06T23:46:23.576Z,4.78
2023-05-06T23:48:51.021Z,4.28
2023-05-06T23:51:18.488Z,4.13
2023-05-06T23:53:46.531Z,4.10
2023-05-06T23:56:13.737Z,3.83
2023-05-06T23:58:41.271Z,4.47
